sensor_id;sensor_type;location;lat;lon;timestamp;P1;durP1;ratioP1;P2;durP2;ratioP2
22318;SDS011;11327;52.334;9.506;2023-03-01T00:01:50;21.23;;;13.65;;
22318;SDS011;11327;52.334;9.506;2023-03-01T00:05:11;19.48;;;12.93;;
22318;SDS011;11327;52.334;9.506;2023-03-01T00:08:31;20.48;;;12.73;;
22318;SDS011;11327;52.334;9.506;2023-03-01T00:11:53;17.55;;;11.63;;
22318;SDS011;11327;52.334;9.506;2023-03-01T00:15:14;16.85;;;11.85;;
22318;SDS011;11327;52.334;9.506;2023-03-01T00:18:35;16.77;;;11.63;;
22318;SDS011;11327;52.334;9.506;2023-03-01T00:21:55;18.32;;;11.80;;
22318;SDS011;11327;52.334;9.506;2023-03-01T00:25:16;19.67;;;12.30;;
22318;SDS011;11327;52.334;9.506;2023-03-01T00:28:37;19.45;;;12.40;;
22318;SDS011;11327;52.334;9.506;2023-03-01T00:31:57;19.50;;;12.45;;
22318;SDS011;11327;52.334;9.506;2023-03-01T00:35:18;20.20;;;12.37;;
22318;SDS011;11327;52.334;9.506;2023-03-01T00:38:40;21.07;;;13.30;;
22318;SDS011;11327;52.334;9.506;2023-03-01T00:42:03;20.68;;;12.15;;
22318;SDS011;11327;52.334;9.506;2023-03-01T00:45:24;20.20;;;12.47;;
22318;SDS011;11327;52.334;9.506;2023-03-01T00:48:45;17.67;;;11.95;;
22318;SDS011;11327;52.334;9.506;2023-03-01T00:52:06;19.02;;;11.57;;
22318;SDS011;11327;52.334;9.506;2023-03-01T00:55:27;19.92;;;11.90;;
22318;SDS011;11327;52.334;9.506;2023-03-01T00:58:48;18.57;;;11.68;;
22318;SDS011;11327;52.334;9.506;2023-03-01T01:02:09;16.48;;;10.98;;
22318;SDS011;11327;52.334;9.506;2023-03-01T01:05:30;18.35;;;10.93;;
22318;SDS011;11327;52.334;9.506;2023-03-01T01:08:51;16.65;;;10.82;;
22318;SDS011;11327;52.334;9.506;2023-03-01T01:12:12;17.02;;;10.60;;
22318;SDS011;11327;52.334;9.506;2023-03-01T01:15:34;15.48;;;10.32;;
22318;SDS011;11327;52.334;9.506;2023-03-01T01:18:55;15.35;;;10.20;;
22318;SDS011;11327;52.334;9.506;2023-03-01T01:22:17;15.43;;;9.93;;
22318;SDS011;11327;52.334;9.506;2023-03-01T01:25:38;14.83;;;10.25;;
22318;SDS011;11327;52.334;9.506;2023-03-01T01:29:02;13.72;;;10.08;;
22318;SDS011;11327;52.334;9.506;2023-03-01T01:32:24;16.57;;;10.87;;
22318;SDS011;11327;52.334;9.506;2023-03-01T01:35:45;17.00;;;11.05;;
22318;SDS011;11327;52.334;9.506;2023-03-01T01:39:06;15.75;;;10.32;;
22318;SDS011;11327;52.334;9.506;2023-03-01T01:42:27;16.05;;;10.60;;
22318;SDS011;11327;52.334;9.506;2023-03-01T01:45:48;17.35;;;10.45;;
22318;SDS011;11327;52.334;9.506;2023-03-01T01:49:13;14.90;;;10.20;;
22318;SDS011;11327;52.334;9.506;2023-03-01T01:52:36;15.35;;;9.70;;
22318;SDS011;11327;52.334;9.506;2023-03-01T01:55:58;13.60;;;9.40;;
22318;SDS011;11327;52.334;9.506;2023-03-01T01:59:21;14.00;;;9.00;;
22318;SDS011;11327;52.334;9.506;2023-03-01T02:02:45;13.53;;;8.95;;
22318;SDS011;11327;52.334;9.506;2023-03-01T02:06:12;14.47;;;9.38;;
22318;SDS011;11327;52.334;9.506;2023-03-01T02:09:35;12.60;;;8.25;;
22318;SDS011;11327;52.334;9.506;2023-03-01T02:12:56;13.88;;;9.08;;
22318;SDS011;11327;52.334;9.506;2023-03-01T02:16:18;13.45;;;8.78;;
22318;SDS011;11327;52.334;9.506;2023-03-01T02:23:07;13.50;;;8.98;;
22318;SDS011;11327;52.334;9.506;2023-03-01T02:26:36;13.50;;;8.70;;
22318;SDS011;11327;52.334;9.506;2023-03-01T02:29:59;15.18;;;9.40;;
22318;SDS011;11327;52.334;9.506;2023-03-01T02:33:19;13.70;;;8.43;;
22318;SDS011;11327;52.334;9.506;2023-03-01T02:36:41;13.08;;;8.28;;
22318;SDS011;11327;52.334;9.506;2023-03-01T02:40:12;12.33;;;8.20;;
22318;SDS011;11327;52.334;9.506;2023-03-01T02:43:37;12.20;;;8.38;;
22318;SDS011;11327;52.334;9.506;2023-03-01T02:46:57;15.03;;;9.00;;
22318;SDS011;11327;52.334;9.506;2023-03-01T02:50:34;12.05;;;8.48;;
22318;SDS011;11327;52.334;9.506;2023-03-01T02:57:47;15.65;;;9.68;;
22318;SDS011;11327;52.334;9.506;2023-03-01T03:01:12;14.28;;;8.58;;
22318;SDS011;11327;52.334;9.506;2023-03-01T03:04:35;14.43;;;8.53;;
22318;SDS011;11327;52.334;9.506;2023-03-01T03:07:56;14.18;;;8.50;;
22318;SDS011;11327;52.334;9.506;2023-03-01T03:11:17;15.98;;;9.30;;
22318;SDS011;11327;52.334;9.506;2023-03-01T03:14:38;15.98;;;9.60;;
22318;SDS011;11327;52.334;9.506;2023-03-01T03:17:59;13.78;;;9.05;;
22318;SDS011;11327;52.334;9.506;2023-03-01T03:21:19;13.58;;;8.58;;
22318;SDS011;11327;52.334;9.506;2023-03-01T03:24:40;13.50;;;9.25;;
22318;SDS011;11327;52.334;9.506;2023-03-01T03:28:01;14.53;;;9.15;;
22318;SDS011;11327;52.334;9.506;2023-03-01T03:31:25;13.53;;;9.13;;
22318;SDS011;11327;52.334;9.506;2023-03-01T03:34:46;14.28;;;8.88;;
22318;SDS011;11327;52.334;9.506;2023-03-01T03:38:08;14.25;;;8.60;;
22318;SDS011;11327;52.334;9.506;2023-03-01T03:41:34;15.05;;;8.93;;
22318;SDS011;11327;52.334;9.506;2023-03-01T03:44:55;14.50;;;8.78;;
22318;SDS011;11327;52.334;9.506;2023-03-01T03:48:16;14.87;;;8.70;;
22318;SDS011;11327;52.334;9.506;2023-03-01T03:51:37;14.40;;;8.95;;
22318;SDS011;11327;52.334;9.506;2023-03-01T03:54:58;14.50;;;8.45;;
22318;SDS011;11327;52.334;9.506;2023-03-01T03:58:20;14.83;;;9.30;;
22318;SDS011;11327;52.334;9.506;2023-03-01T04:01:42;13.75;;;8.58;;
22318;SDS011;11327;52.334;9.506;2023-03-01T04:05:05;14.10;;;8.00;;
22318;SDS011;11327;52.334;9.506;2023-03-01T04:08:27;12.53;;;7.45;;
22318;SDS011;11327;52.334;9.506;2023-03-01T04:11:48;10.53;;;6.87;;
22318;SDS011;11327;52.334;9.506;2023-03-01T04:15:10;11.88;;;6.95;;
22318;SDS011;11327;52.334;9.506;2023-03-01T04:18:34;12.55;;;6.80;;
22318;SDS011;11327;52.334;9.506;2023-03-01T04:21:55;12.50;;;7.28;;
22318;SDS011;11327;52.334;9.506;2023-03-01T04:25:16;13.62;;;7.83;;
22318;SDS011;11327;52.334;9.506;2023-03-01T04:28:37;11.53;;;7.25;;
22318;SDS011;11327;52.334;9.506;2023-03-01T04:32:00;12.05;;;7.58;;
22318;SDS011;11327;52.334;9.506;2023-03-01T04:35:21;13.08;;;7.20;;
22318;SDS011;11327;52.334;9.506;2023-03-01T04:38:42;10.50;;;7.45;;
22318;SDS011;11327;52.334;9.506;2023-03-01T04:42:05;11.10;;;7.22;;
22318;SDS011;11327;52.334;9.506;2023-03-01T04:45:25;13.03;;;7.50;;
22318;SDS011;11327;52.334;9.506;2023-03-01T04:48:46;11.20;;;6.97;;
22318;SDS011;11327;52.334;9.506;2023-03-01T04:52:08;9.45;;;6.28;;
22318;SDS011;11327;52.334;9.506;2023-03-01T04:55:29;11.80;;;7.22;;
22318;SDS011;11327;52.334;9.506;2023-03-01T04:58:52;10.82;;;6.60;;
22318;SDS011;11327;52.334;9.506;2023-03-01T05:02:15;10.58;;;6.53;;
22318;SDS011;11327;52.334;9.506;2023-03-01T05:05:37;11.30;;;6.65;;
22318;SDS011;11327;52.334;9.506;2023-03-01T05:08:58;9.78;;;6.62;;
22318;SDS011;11327;52.334;9.506;2023-03-01T05:12:19;11.00;;;6.42;;
22318;SDS011;11327;52.334;9.506;2023-03-01T05:15:40;11.18;;;6.53;;
22318;SDS011;11327;52.334;9.506;2023-03-01T05:19:01;12.10;;;6.85;;
22318;SDS011;11327;52.334;9.506;2023-03-01T05:22:25;12.00;;;6.65;;
22318;SDS011;11327;52.334;9.506;2023-03-01T05:25:46;9.63;;;6.45;;
22318;SDS011;11327;52.334;9.506;2023-03-01T05:29:06;11.25;;;6.58;;
22318;SDS011;11327;52.334;9.506;2023-03-01T05:32:29;11.70;;;6.65;;
22318;SDS011;11327;52.334;9.506;2023-03-01T05:35:52;12.00;;;6.90;;
22318;SDS011;11327;52.334;9.506;2023-03-01T05:39:13;10.28;;;6.50;;
22318;SDS011;11327;52.334;9.506;2023-03-01T05:42:34;8.00;;;5.72;;
22318;SDS011;11327;52.334;9.506;2023-03-01T05:45:55;13.83;;;6.53;;
22318;SDS011;11327;52.334;9.506;2023-03-01T05:49:18;9.43;;;6.40;;
22318;SDS011;11327;52.334;9.506;2023-03-01T05:52:39;9.10;;;6.03;;
22318;SDS011;11327;52.334;9.506;2023-03-01T05:56:02;9.30;;;6.22;;
22318;SDS011;11327;52.334;9.506;2023-03-01T05:59:24;10.08;;;5.72;;
22318;SDS011;11327;52.334;9.506;2023-03-01T06:02:45;9.83;;;5.87;;
22318;SDS011;11327;52.334;9.506;2023-03-01T06:06:05;10.53;;;6.35;;
22318;SDS011;11327;52.334;9.506;2023-03-01T06:09:26;10.80;;;6.72;;
22318;SDS011;11327;52.334;9.506;2023-03-01T06:12:47;11.28;;;6.55;;
22318;SDS011;11327;52.334;9.506;2023-03-01T06:16:09;9.78;;;5.75;;
22318;SDS011;11327;52.334;9.506;2023-03-01T06:19:30;9.28;;;5.92;;
22318;SDS011;11327;52.334;9.506;2023-03-01T06:22:51;11.10;;;5.87;;
22318;SDS011;11327;52.334;9.506;2023-03-01T06:26:11;8.48;;;5.92;;
22318;SDS011;11327;52.334;9.506;2023-03-01T06:29:32;8.38;;;6.00;;
22318;SDS011;11327;52.334;9.506;2023-03-01T06:32:53;9.75;;;5.97;;
22318;SDS011;11327;52.334;9.506;2023-03-01T06:36:16;9.80;;;5.75;;
22318;SDS011;11327;52.334;9.506;2023-03-01T06:39:38;10.32;;;5.72;;
22318;SDS011;11327;52.334;9.506;2023-03-01T06:42:59;9.45;;;5.70;;
22318;SDS011;11327;52.334;9.506;2023-03-01T06:46:21;8.18;;;5.40;;
22318;SDS011;11327;52.334;9.506;2023-03-01T06:49:42;8.50;;;5.92;;
22318;SDS011;11327;52.334;9.506;2023-03-01T06:53:02;8.75;;;5.12;;
22318;SDS011;11327;52.334;9.506;2023-03-01T06:56:23;9.00;;;5.30;;
22318;SDS011;11327;52.334;9.506;2023-03-01T06:59:44;9.30;;;5.40;;
22318;SDS011;11327;52.334;9.506;2023-03-01T07:03:07;9.18;;;5.45;;
22318;SDS011;11327;52.334;9.506;2023-03-01T07:06:28;9.53;;;5.58;;
22318;SDS011;11327;52.334;9.506;2023-03-01T07:09:49;10.75;;;5.85;;
22318;SDS011;11327;52.334;9.506;2023-03-01T07:13:12;8.93;;;5.42;;
22318;SDS011;11327;52.334;9.506;2023-03-01T07:16:33;9.30;;;4.92;;
22318;SDS011;11327;52.334;9.506;2023-03-01T07:19:54;10.30;;;4.95;;
22318;SDS011;11327;52.334;9.506;2023-03-01T07:23:14;8.45;;;5.28;;
22318;SDS011;11327;52.334;9.506;2023-03-01T07:26:35;9.90;;;5.95;;
22318;SDS011;11327;52.334;9.506;2023-03-01T07:29:56;10.18;;;6.00;;
22318;SDS011;11327;52.334;9.506;2023-03-01T07:33:17;11.40;;;6.50;;
22318;SDS011;11327;52.334;9.506;2023-03-01T07:36:38;10.43;;;6.45;;
22318;SDS011;11327;52.334;9.506;2023-03-01T07:39:59;13.50;;;7.87;;
22318;SDS011;11327;52.334;9.506;2023-03-01T07:43:20;10.35;;;7.47;;
22318;SDS011;11327;52.334;9.506;2023-03-01T07:46:41;13.62;;;7.17;;
22318;SDS011;11327;52.334;9.506;2023-03-01T07:50:02;10.43;;;6.58;;
22318;SDS011;11327;52.334;9.506;2023-03-01T07:53:24;11.08;;;6.65;;
22318;SDS011;11327;52.334;9.506;2023-03-01T07:56:44;13.00;;;7.55;;
22318;SDS011;11327;52.334;9.506;2023-03-01T08:00:05;10.48;;;6.72;;
22318;SDS011;11327;52.334;9.506;2023-03-01T08:03:28;11.25;;;7.05;;
22318;SDS011;11327;52.334;9.506;2023-03-01T08:06:49;11.05;;;7.30;;
22318;SDS011;11327;52.334;9.506;2023-03-01T08:10:10;11.08;;;6.83;;
22318;SDS011;11327;52.334;9.506;2023-03-01T08:13:31;10.32;;;7.28;;
22318;SDS011;11327;52.334;9.506;2023-03-01T08:16:52;12.75;;;7.72;;
22318;SDS011;11327;52.334;9.506;2023-03-01T08:20:13;12.40;;;7.75;;
22318;SDS011;11327;52.334;9.506;2023-03-01T08:23:34;12.75;;;7.83;;
22318;SDS011;11327;52.334;9.506;2023-03-01T08:26:54;12.53;;;7.97;;
22318;SDS011;11327;52.334;9.506;2023-03-01T08:30:16;12.95;;;8.63;;
22318;SDS011;11327;52.334;9.506;2023-03-01T08:33:37;12.33;;;8.60;;
22318;SDS011;11327;52.334;9.506;2023-03-01T08:36:57;15.05;;;8.83;;
22318;SDS011;11327;52.334;9.506;2023-03-01T08:40:18;16.23;;;9.23;;
22318;SDS011;11327;52.334;9.506;2023-03-01T08:43:39;15.40;;;10.15;;
22318;SDS011;11327;52.334;9.506;2023-03-01T08:47:00;17.62;;;11.28;;
22318;SDS011;11327;52.334;9.506;2023-03-01T08:50:23;17.00;;;11.15;;
22318;SDS011;11327;52.334;9.506;2023-03-01T08:53:44;15.80;;;11.35;;
22318;SDS011;11327;52.334;9.506;2023-03-01T08:57:06;15.60;;;11.18;;
22318;SDS011;11327;52.334;9.506;2023-03-01T09:00:26;16.45;;;11.22;;
22318;SDS011;11327;52.334;9.506;2023-03-01T09:03:48;18.05;;;11.68;;
22318;SDS011;11327;52.334;9.506;2023-03-01T09:07:09;17.35;;;11.40;;
22318;SDS011;11327;52.334;9.506;2023-03-01T09:10:30;16.45;;;10.90;;
22318;SDS011;11327;52.334;9.506;2023-03-01T09:13:50;16.60;;;11.00;;
22318;SDS011;11327;52.334;9.506;2023-03-01T09:17:11;15.15;;;9.80;;
22318;SDS011;11327;52.334;9.506;2023-03-01T09:20:32;15.48;;;10.38;;
22318;SDS011;11327;52.334;9.506;2023-03-01T09:23:53;15.58;;;10.18;;
22318;SDS011;11327;52.334;9.506;2023-03-01T09:27:17;14.68;;;10.23;;
22318;SDS011;11327;52.334;9.506;2023-03-01T09:30:39;15.43;;;10.40;;
22318;SDS011;11327;52.334;9.506;2023-03-01T09:33:59;14.20;;;10.10;;
22318;SDS011;11327;52.334;9.506;2023-03-01T09:37:20;16.73;;;10.00;;
22318;SDS011;11327;52.334;9.506;2023-03-01T09:40:42;15.03;;;10.08;;
22318;SDS011;11327;52.334;9.506;2023-03-01T09:47:54;15.80;;;9.93;;
22318;SDS011;11327;52.334;9.506;2023-03-01T09:51:22;16.02;;;10.08;;
22318;SDS011;11327;52.334;9.506;2023-03-01T09:54:43;12.35;;;9.18;;
22318;SDS011;11327;52.334;9.506;2023-03-01T10:12:20;19.15;;;9.65;;
22318;SDS011;11327;52.334;9.506;2023-03-01T10:15:50;13.98;;;9.48;;
22318;SDS011;11327;52.334;9.506;2023-03-01T10:19:23;16.67;;;9.95;;
22318;SDS011;11327;52.334;9.506;2023-03-01T10:22:45;15.08;;;10.32;;
22318;SDS011;11327;52.334;9.506;2023-03-01T10:30:07;16.62;;;9.63;;
22318;SDS011;11327;52.334;9.506;2023-03-01T10:33:33;15.93;;;9.65;;
22318;SDS011;11327;52.334;9.506;2023-03-01T10:36:58;14.90;;;9.13;;
22318;SDS011;11327;52.334;9.506;2023-03-01T10:40:21;13.30;;;8.48;;
22318;SDS011;11327;52.334;9.506;2023-03-01T10:43:44;13.20;;;8.85;;
22318;SDS011;11327;52.334;9.506;2023-03-01T10:50:43;13.78;;;9.00;;
22318;SDS011;11327;52.334;9.506;2023-03-01T10:54:15;11.08;;;8.10;;
22318;SDS011;11327;52.334;9.506;2023-03-01T10:57:36;12.33;;;8.30;;
22318;SDS011;11327;52.334;9.506;2023-03-01T11:04:25;10.30;;;6.50;;
22318;SDS011;11327;52.334;9.506;2023-03-01T11:07:51;11.35;;;6.30;;
22318;SDS011;11327;52.334;9.506;2023-03-01T11:11:29;9.73;;;5.28;;
22318;SDS011;11327;52.334;9.506;2023-03-01T11:14:54;10.23;;;5.10;;
22318;SDS011;11327;52.334;9.506;2023-03-01T11:18:19;8.75;;;5.30;;
22318;SDS011;11327;52.334;9.506;2023-03-01T11:21:59;7.50;;;4.80;;
22318;SDS011;11327;52.334;9.506;2023-03-01T11:25:37;8.23;;;5.17;;
22318;SDS011;11327;52.334;9.506;2023-03-01T11:29:02;10.72;;;6.10;;
22318;SDS011;11327;52.334;9.506;2023-03-01T11:32:25;7.20;;;5.00;;
22318;SDS011;11327;52.334;9.506;2023-03-01T11:35:53;7.45;;;5.10;;
22318;SDS011;11327;52.334;9.506;2023-03-01T11:39:38;8.05;;;5.20;;
22318;SDS011;11327;52.334;9.506;2023-03-01T11:43:11;7.53;;;5.03;;
22318;SDS011;11327;52.334;9.506;2023-03-01T11:46:51;8.70;;;5.22;;
22318;SDS011;11327;52.334;9.506;2023-03-01T11:55:12;9.83;;;5.05;;
22318;SDS011;11327;52.334;9.506;2023-03-01T11:57:49;6.50;;;4.50;;
22318;SDS011;11327;52.334;9.506;2023-03-01T12:01:28;10.05;;;4.65;;
22318;SDS011;11327;52.334;9.506;2023-03-01T12:04:53;7.08;;;4.33;;
22318;SDS011;11327;52.334;9.506;2023-03-01T12:08:20;5.83;;;4.37;;
22318;SDS011;11327;52.334;9.506;2023-03-01T12:19:27;7.78;;;4.28;;
22318;SDS011;11327;52.334;9.506;2023-03-01T12:34:51;5.45;;;3.95;;
22318;SDS011;11327;52.334;9.506;2023-03-01T12:45:45;5.75;;;3.67;;
22318;SDS011;11327;52.334;9.506;2023-03-01T12:49:17;5.37;;;3.52;;
22318;SDS011;11327;52.334;9.506;2023-03-01T12:52:56;5.10;;;3.60;;
22318;SDS011;11327;52.334;9.506;2023-03-01T12:56:19;5.30;;;3.62;;
22318;SDS011;11327;52.334;9.506;2023-03-01T12:59:55;4.90;;;3.35;;
22318;SDS011;11327;52.334;9.506;2023-03-01T13:07:21;6.00;;;3.80;;
22318;SDS011;11327;52.334;9.506;2023-03-01T13:10:59;4.92;;;3.77;;
22318;SDS011;11327;52.334;9.506;2023-03-01T13:17:54;6.35;;;4.25;;
22318;SDS011;11327;52.334;9.506;2023-03-01T13:21:28;6.42;;;3.83;;
22318;SDS011;11327;52.334;9.506;2023-03-01T13:24:50;5.25;;;3.95;;
22318;SDS011;11327;52.334;9.506;2023-03-01T13:31:56;5.87;;;3.60;;
22318;SDS011;11327;52.334;9.506;2023-03-01T13:38:47;6.47;;;4.03;;
22318;SDS011;11327;52.334;9.506;2023-03-01T13:45:57;6.15;;;3.85;;
22318;SDS011;11327;52.334;9.506;2023-03-01T13:49:20;5.28;;;3.90;;
22318;SDS011;11327;52.334;9.506;2023-03-01T13:52:43;5.47;;;4.20;;
22318;SDS011;11327;52.334;9.506;2023-03-01T13:56:20;6.78;;;3.92;;
22318;SDS011;11327;52.334;9.506;2023-03-01T13:59:47;6.05;;;3.45;;
22318;SDS011;11327;52.334;9.506;2023-03-01T14:06:33;6.08;;;3.65;;
22318;SDS011;11327;52.334;9.506;2023-03-01T14:10:03;5.62;;;3.40;;
22318;SDS011;11327;52.334;9.506;2023-03-01T14:20:44;5.15;;;3.75;;
22318;SDS011;11327;52.334;9.506;2023-03-01T14:24:17;6.45;;;4.10;;
22318;SDS011;11327;52.334;9.506;2023-03-01T14:27:42;5.60;;;3.75;;
22318;SDS011;11327;52.334;9.506;2023-03-01T14:31:29;6.45;;;4.25;;
22318;SDS011;11327;52.334;9.506;2023-03-01T14:34:47;6.87;;;4.30;;
22318;SDS011;11327;52.334;9.506;2023-03-01T14:38:20;5.80;;;4.28;;
22318;SDS011;11327;52.334;9.506;2023-03-01T14:41:42;5.83;;;4.00;;
22318;SDS011;11327;52.334;9.506;2023-03-01T14:45:03;6.22;;;4.20;;
22318;SDS011;11327;52.334;9.506;2023-03-01T14:48:26;5.90;;;4.30;;
22318;SDS011;11327;52.334;9.506;2023-03-01T14:52:35;5.87;;;3.95;;
22318;SDS011;11327;52.334;9.506;2023-03-01T14:55:17;5.83;;;3.80;;
22318;SDS011;11327;52.334;9.506;2023-03-01T14:58:40;6.00;;;4.37;;
22318;SDS011;11327;52.334;9.506;2023-03-01T15:02:01;6.25;;;4.17;;
22318;SDS011;11327;52.334;9.506;2023-03-01T15:05:26;5.67;;;3.90;;
22318;SDS011;11327;52.334;9.506;2023-03-01T15:08:52;5.90;;;3.45;;
22318;SDS011;11327;52.334;9.506;2023-03-01T15:12:25;6.00;;;3.92;;
22318;SDS011;11327;52.334;9.506;2023-03-01T15:15:50;4.67;;;3.30;;
22318;SDS011;11327;52.334;9.506;2023-03-01T15:19:15;5.55;;;3.60;;
22318;SDS011;11327;52.334;9.506;2023-03-01T15:22:38;6.05;;;3.60;;
22318;SDS011;11327;52.334;9.506;2023-03-01T15:25:59;6.33;;;3.65;;
22318;SDS011;11327;52.334;9.506;2023-03-01T15:29:25;5.37;;;3.20;;
22318;SDS011;11327;52.334;9.506;2023-03-01T15:33:15;5.33;;;3.42;;
22318;SDS011;11327;52.334;9.506;2023-03-01T15:36:44;4.45;;;3.08;;
22318;SDS011;11327;52.334;9.506;2023-03-01T15:40:18;6.35;;;3.58;;
22318;SDS011;11327;52.334;9.506;2023-03-01T15:43:46;5.50;;;3.47;;
22318;SDS011;11327;52.334;9.506;2023-03-01T15:47:20;4.80;;;3.05;;
22318;SDS011;11327;52.334;9.506;2023-03-01T15:50:43;5.45;;;2.95;;
22318;SDS011;11327;52.334;9.506;2023-03-01T15:54:18;4.15;;;2.72;;
22318;SDS011;11327;52.334;9.506;2023-03-01T15:57:33;5.37;;;3.20;;
22318;SDS011;11327;52.334;9.506;2023-03-01T16:00:54;5.75;;;2.83;;
22318;SDS011;11327;52.334;9.506;2023-03-01T16:04:19;5.53;;;3.17;;
22318;SDS011;11327;52.334;9.506;2023-03-01T16:07:43;4.20;;;2.75;;
22318;SDS011;11327;52.334;9.506;2023-03-01T16:11:14;5.53;;;3.10;;
22318;SDS011;11327;52.334;9.506;2023-03-01T16:14:37;4.20;;;2.52;;
22318;SDS011;11327;52.334;9.506;2023-03-01T16:17:58;4.28;;;2.45;;
22318;SDS011;11327;52.334;9.506;2023-03-01T16:21:23;5.25;;;2.90;;
22318;SDS011;11327;52.334;9.506;2023-03-01T16:24:45;6.17;;;3.23;;
22318;SDS011;11327;52.334;9.506;2023-03-01T16:28:06;4.47;;;2.47;;
22318;SDS011;11327;52.334;9.506;2023-03-01T16:31:30;4.60;;;2.50;;
22318;SDS011;11327;52.334;9.506;2023-03-01T16:34:51;5.58;;;2.90;;
22318;SDS011;11327;52.334;9.506;2023-03-01T16:38:12;3.30;;;2.30;;
22318;SDS011;11327;52.334;9.506;2023-03-01T16:41:32;4.03;;;2.40;;
22318;SDS011;11327;52.334;9.506;2023-03-01T16:44:56;4.70;;;2.45;;
22318;SDS011;11327;52.334;9.506;2023-03-01T16:48:17;5.05;;;2.30;;
22318;SDS011;11327;52.334;9.506;2023-03-01T16:51:38;3.33;;;2.25;;
22318;SDS011;11327;52.334;9.506;2023-03-01T16:54:59;5.17;;;2.50;;
22318;SDS011;11327;52.334;9.506;2023-03-01T16:58:20;3.85;;;2.75;;
22318;SDS011;11327;52.334;9.506;2023-03-01T17:01:41;6.22;;;2.62;;
22318;SDS011;11327;52.334;9.506;2023-03-01T17:05:02;5.03;;;2.70;;
22318;SDS011;11327;52.334;9.506;2023-03-01T17:08:23;4.15;;;2.50;;
22318;SDS011;11327;52.334;9.506;2023-03-01T17:11:44;5.67;;;2.77;;
22318;SDS011;11327;52.334;9.506;2023-03-01T17:15:06;5.22;;;2.55;;
22318;SDS011;11327;52.334;9.506;2023-03-01T17:18:27;5.10;;;2.90;;
22318;SDS011;11327;52.334;9.506;2023-03-01T17:21:47;5.00;;;3.15;;
22318;SDS011;11327;52.334;9.506;2023-03-01T17:25:08;4.92;;;2.77;;
22318;SDS011;11327;52.334;9.506;2023-03-01T17:28:31;5.65;;;2.95;;
22318;SDS011;11327;52.334;9.506;2023-03-01T17:31:54;4.17;;;2.60;;
22318;SDS011;11327;52.334;9.506;2023-03-01T17:35:15;5.12;;;3.20;;
22318;SDS011;11327;52.334;9.506;2023-03-01T17:38:36;4.90;;;2.92;;
22318;SDS011;11327;52.334;9.506;2023-03-01T17:41:57;4.47;;;2.67;;
22318;SDS011;11327;52.334;9.506;2023-03-01T17:45:18;4.75;;;3.20;;
22318;SDS011;11327;52.334;9.506;2023-03-01T17:48:38;5.67;;;3.10;;
22318;SDS011;11327;52.334;9.506;2023-03-01T17:51:59;5.87;;;3.72;;
22318;SDS011;11327;52.334;9.506;2023-03-01T17:55:20;6.58;;;4.60;;
22318;SDS011;11327;52.334;9.506;2023-03-01T17:58:41;15.98;;;10.00;;
22318;SDS011;11327;52.334;9.506;2023-03-01T18:02:02;15.30;;;9.73;;
22318;SDS011;11327;52.334;9.506;2023-03-01T18:05:23;10.23;;;7.83;;
22318;SDS011;11327;52.334;9.506;2023-03-01T18:08:44;9.98;;;7.20;;
22318;SDS011;11327;52.334;9.506;2023-03-01T18:12:06;8.48;;;5.95;;
22318;SDS011;11327;52.334;9.506;2023-03-01T18:15:27;9.43;;;6.03;;
22318;SDS011;11327;52.334;9.506;2023-03-01T18:18:51;9.23;;;6.58;;
22318;SDS011;11327;52.334;9.506;2023-03-01T18:22:14;15.10;;;9.20;;
22318;SDS011;11327;52.334;9.506;2023-03-01T18:25:38;17.52;;;10.35;;
22318;SDS011;11327;52.334;9.506;2023-03-01T18:28:58;17.23;;;10.28;;
22318;SDS011;11327;52.334;9.506;2023-03-01T18:32:20;19.73;;;11.00;;
22318;SDS011;11327;52.334;9.506;2023-03-01T18:35:41;20.12;;;11.38;;
22318;SDS011;11327;52.334;9.506;2023-03-01T18:39:03;20.45;;;10.60;;
22318;SDS011;11327;52.334;9.506;2023-03-01T18:42:25;15.20;;;9.73;;
22318;SDS011;11327;52.334;9.506;2023-03-01T18:45:45;16.55;;;9.80;;
22318;SDS011;11327;52.334;9.506;2023-03-01T18:49:06;11.55;;;7.22;;
22318;SDS011;11327;52.334;9.506;2023-03-01T18:52:27;12.20;;;7.65;;
22318;SDS011;11327;52.334;9.506;2023-03-01T18:55:48;10.48;;;6.90;;
22318;SDS011;11327;52.334;9.506;2023-03-01T18:59:09;14.93;;;8.48;;
22318;SDS011;11327;52.334;9.506;2023-03-01T19:02:29;14.65;;;9.20;;
22318;SDS011;11327;52.334;9.506;2023-03-01T19:05:50;14.45;;;9.20;;
22318;SDS011;11327;52.334;9.506;2023-03-01T19:09:11;16.70;;;9.45;;
22318;SDS011;11327;52.334;9.506;2023-03-01T19:12:33;15.90;;;10.08;;
22318;SDS011;11327;52.334;9.506;2023-03-01T19:16:09;19.62;;;11.70;;
22318;SDS011;11327;52.334;9.506;2023-03-01T19:19:28;16.40;;;10.18;;
22318;SDS011;11327;52.334;9.506;2023-03-01T19:22:49;18.67;;;11.08;;
22318;SDS011;11327;52.334;9.506;2023-03-01T19:26:11;16.42;;;10.20;;
22318;SDS011;11327;52.334;9.506;2023-03-01T19:29:33;13.88;;;9.05;;
22318;SDS011;11327;52.334;9.506;2023-03-01T19:32:54;14.43;;;8.45;;
22318;SDS011;11327;52.334;9.506;2023-03-01T19:36:15;15.30;;;9.25;;
22318;SDS011;11327;52.334;9.506;2023-03-01T19:39:38;13.83;;;8.40;;
22318;SDS011;11327;52.334;9.506;2023-03-01T19:42:58;14.10;;;9.20;;
22318;SDS011;11327;52.334;9.506;2023-03-01T19:46:19;14.50;;;8.08;;
22318;SDS011;11327;52.334;9.506;2023-03-01T19:49:40;13.20;;;8.30;;
22318;SDS011;11327;52.334;9.506;2023-03-01T19:53:02;16.62;;;10.18;;
22318;SDS011;11327;52.334;9.506;2023-03-01T19:56:22;15.63;;;10.15;;
22318;SDS011;11327;52.334;9.506;2023-03-01T19:59:43;16.57;;;10.98;;
22318;SDS011;11327;52.334;9.506;2023-03-01T20:03:04;16.27;;;10.70;;
22318;SDS011;11327;52.334;9.506;2023-03-01T20:06:25;17.60;;;10.82;;
22318;SDS011;11327;52.334;9.506;2023-03-01T20:09:45;17.52;;;10.95;;
22318;SDS011;11327;52.334;9.506;2023-03-01T20:13:06;15.20;;;9.85;;
22318;SDS011;11327;52.334;9.506;2023-03-01T20:16:27;16.07;;;10.50;;
22318;SDS011;11327;52.334;9.506;2023-03-01T20:19:47;15.45;;;10.40;;
22318;SDS011;11327;52.334;9.506;2023-03-01T20:23:08;18.50;;;11.43;;
22318;SDS011;11327;52.334;9.506;2023-03-01T20:26:29;18.05;;;10.95;;
22318;SDS011;11327;52.334;9.506;2023-03-01T20:29:54;17.10;;;11.57;;
22318;SDS011;11327;52.334;9.506;2023-03-01T20:33:14;18.48;;;13.13;;
22318;SDS011;11327;52.334;9.506;2023-03-01T20:36:35;18.25;;;12.98;;
22318;SDS011;11327;52.334;9.506;2023-03-01T20:39:57;16.80;;;10.75;;
22318;SDS011;11327;52.334;9.506;2023-03-01T20:43:19;18.92;;;12.47;;
22318;SDS011;11327;52.334;9.506;2023-03-01T20:46:39;18.67;;;13.83;;
22318;SDS011;11327;52.334;9.506;2023-03-01T20:50:00;16.35;;;12.13;;
22318;SDS011;11327;52.334;9.506;2023-03-01T20:53:22;16.50;;;10.53;;
22318;SDS011;11327;52.334;9.506;2023-03-01T20:56:43;13.75;;;8.80;;
22318;SDS011;11327;52.334;9.506;2023-03-01T21:00:04;13.35;;;9.30;;
22318;SDS011;11327;52.334;9.506;2023-03-01T21:03:26;14.85;;;9.55;;
22318;SDS011;11327;52.334;9.506;2023-03-01T21:06:47;16.62;;;9.60;;
22318;SDS011;11327;52.334;9.506;2023-03-01T21:10:08;14.43;;;9.75;;
22318;SDS011;11327;52.334;9.506;2023-03-01T21:13:30;16.67;;;9.98;;
22318;SDS011;11327;52.334;9.506;2023-03-01T21:16:52;16.57;;;10.08;;
22318;SDS011;11327;52.334;9.506;2023-03-01T21:20:12;16.00;;;10.60;;
22318;SDS011;11327;52.334;9.506;2023-03-01T21:23:34;14.65;;;9.70;;
22318;SDS011;11327;52.334;9.506;2023-03-01T21:26:56;14.00;;;9.40;;
22318;SDS011;11327;52.334;9.506;2023-03-01T21:30:17;14.47;;;9.30;;
22318;SDS011;11327;52.334;9.506;2023-03-01T21:33:39;13.90;;;9.48;;
22318;SDS011;11327;52.334;9.506;2023-03-01T21:37:02;13.68;;;9.70;;
22318;SDS011;11327;52.334;9.506;2023-03-01T21:40:25;16.90;;;10.05;;
22318;SDS011;11327;52.334;9.506;2023-03-01T21:43:46;17.70;;;11.63;;